Hinkle, KY

4:38 AM EDT on July 23, 2014 (GMT -0400)
Middlesboro (K1A6) Elev 1155 ft | 36.61 °N, 83.74 °W | Change Station

Current weather conditions updated 23 minutes ago

Scattered Clouds
Scattered Clouds
68 °F
Feels Like 68 °F
N
0
Wind Variable Wind from North

Today is forecast to be nearly the same temperature as yesterday. Showers and thunderstorms late.

Today
High -- | Low -- °F
--% Chance of Precip.
Yesterday
High -- | Low -- °F
Precip. -- in
6:33 AM 8:49 PM
Waning Crescent, 12% visible
Pressure 30.10 in
Visibility 10.0 miles
Clouds Scattered Clouds 400 ft
Dew Point 67 °F
Humidity 99%
Rainfall 0.00 in
Snow Depth Not available.
UV 0 out of 12
Pollen 3.40 out of 12
Air Quality Not available.
Flu Activity Not available.
METAR K1A6 230815Z AUTO 00000KT 10SM SCT004 20/20 A3010 RMK AO2 T01980196

More Conditions Fewer Conditions

Pressure 30.10 in
Visibility 10.0 miles
Clouds Scattered Clouds 400 ft
Dew Point 67 °F
Humidity 99%
Rainfall 0.00 in
Snow Depth Not available.
UV 0 out of 12
Pollen 3.40 out of 12
Air Quality Not available.
Flu Activity Not available.
METAR K1A6 230815Z AUTO 00000KT 10SM SCT004 20/20 A3010 RMK AO2 T01980196

More Conditions Fewer Conditions

10-Day Weather Forecast

Almanac

Astronomy

Jul. 23, 2014 Rise Set
Actual Time 6:33 AM EDT 8:49 PM EDT
Civil Twilight 6:04 AM EDT 9:18 PM EDT
Nautical Twilight 5:28 AM EDT 9:54 PM EDT
Astronomical Twilight 4:48 AM EDT 10:33 PM EDT
Moon 3:51 AM EDT 6:17 PM EDT
Length of Visible Light 15h 14m
Length of Day
14h 15m
Tomorrow will be 1m 30s shorter.
Waning Crescent, 12% of the Moon is Illuminated
Today
Waning Crescent
Jul 26
New
Aug 3
First Quarter
Aug 10
Full
Aug 17
Last Quarter

Today's Extremes

State Highs State Lows

Community

WunderPhotos

Upload Photos

1,736,529 photos uploaded!

Nearby

Snow Depth

Station Depth Elevation
No new snow has been reported.

Earthquake Activity

City Distance Mag. Time & Date
No recent earthquake activity has been reported nearby.
Minimum magnitude displayed is 2.5.

Coastal Water Temperatures

Place Temperature
No Stations Reporting

Nearby Weather Stations

Station Location Temp. Dew Point Humidity Wind Precip. Elev Updated Type
liford's, Barbourville, KY 70.0 °F 70 °F 99% NNW  at  0.0 mph - / hr 1066 ft 4:25 AM EDT Normal
Mackey Bend, Barbourville, KY 68.5 °F 68 °F 99% ENE  at  0.0 mph 0.00 in / hr 1020 ft 4:38 AM EDT Rapid Fire
Colmar, Middlesboro, KY 69.5 °F 68 °F 96% SSE  at  0.0 mph - / hr 1135 ft 4:27 AM EDT Normal
RAWS YELLOW CREEK KY, Middlesboro, KY 68 °F 68 °F 99% North  at  0 mph 0.00 in / hr 1089 ft 3:26 AM EDT MADIS
RAWS PEABODY KY, Big Creek, KY 69 °F 69 °F 99% SE  at  1 mph 0.00 in / hr 1464 ft 4:01 AM EDT MADIS
MSWO, London, KY 69.8 °F 69 °F 98% NNW  at  0.0 mph 0.00 in / hr 1163 ft 4:38 AM EDT Rapid Fire

Show More Stations Show Fewer Stations